Time;durP1;ratioP1;P1;durP2;ratioP2;P2;SDS_P1;SDS_P2;PMS_P1;PMS_P2;Temp;Humidity;BMP_temperature;BMP_pressure;BME280_temperature;BME280_humidity;BME280_pressure;Samples;Min_cycle;Max_cycle;Signal;HPM_P1;HPM_P2
2023/06/16 00:01:22;;;;;;;;;;;;;;;;;;5085882;28;19916;-48
2023/06/16 05:10:16;;;;;;;;;;;;;;;;;;5076448;28;19974;-48
2023/06/16 05:12:43;;;;;;;;;;;;;;;;;;5085540;28;19935;-51
2023/06/16 05:15:09;;;;;;;;;;;;;;;;;;5086682;28;19920;-50
2023/06/16 05:17:36;;;;;;;;;;;;;;;;;;5085003;28;20143;-47
2023/06/16 05:20:03;;;;;;;;;;;;;;;;;;5087041;28;19961;-49
2023/06/16 05:22:29;;;;;;;;;;;;;;;;;;5087254;28;19916;-47
2023/06/16 05:24:56;;;;;;;;;;;;;;;;;;5086946;28;19908;-49
2023/06/16 05:27:25;;;;;;;;;;;;;;;;;;5089668;28;20395;-48
2023/06/16 05:29:51;;;;;;;;;;;;;;;;;;5089556;28;19912;-51
2023/06/16 05:32:19;;;;;;;;;;;;;;;;;;5089433;28;20335;-48
2023/06/16 05:34:45;;;;;;;;;;;;;;;;;;5090042;28;19939;-49
2023/06/16 05:37:15;;;;;;;;;;;;;;;;;;5090104;28;19935;-47
2023/06/16 05:39:41;;;;;;;;;;;;;;;;;;5091418;28;19908;-52
2023/06/16 05:42:06;;;;;;;;;;;;;;;;;;5088334;28;19919;-52
2023/06/16 05:44:32;;;;;;;;;;;;;;;;;;5090193;28;19915;-47
2023/06/16 05:46:58;;;;;;;;;;;;;;;;;;5088871;28;19924;-51
2023/06/16 05:49:24;;;;;;;;;;;;;;;;;;5090245;28;19916;-48
2023/06/16 05:51:51;;;;;;;;;;;;;;;;;;5085082;28;20418;-52
2023/06/16 05:54:17;;;;;;;;;;;;;;;;;;5078765;28;19920;-48
2023/06/16 05:56:43;;;;;;;;;;;;;;;;;;5075204;28;19912;-50
2023/06/16 05:59:10;;;;;;;;;;;;;;;;;;5091147;28;20377;-49
2023/06/16 06:01:36;;;;;;;;;;;;;;;;;;5088413;28;20376;-49
2023/06/16 06:04:02;;;;;;;;;;;;;;;;;;5087060;28;19919;-49
2023/06/16 06:06:28;;;;;;;;;;;;;;;;;;5090960;28;19915;-52
2023/06/16 06:08:53;;;;;;;;;;;;;;;;;;5090891;28;20678;-50
2023/06/16 06:11:19;;;;;;;;;;;;;;;;;;5090122;28;19920;-49
2023/06/16 06:13:45;;;;;;;;;;;;;;;;;;5091951;28;19912;-53
2023/06/16 06:16:11;;;;;;;;;;;;;;;;;;5070969;28;19916;-50
2023/06/16 06:18:37;;;;;;;;;;;;;;;;;;5071658;28;19995;-53
2023/06/16 06:21:03;;;;;;;;;;;;;;;;;;5078817;28;20448;-48
2023/06/16 06:23:29;;;;;;;;;;;;;;;;;;5089007;28;19920;-49
2023/06/16 06:25:55;;;;;;;;;;;;;;;;;;5088397;28;19960;-52
2023/06/16 06:28:23;;;;;;;;;;;;;;;;;;5091469;28;19959;-51
2023/06/16 06:30:49;;;;;;;;;;;;;;;;;;5091909;28;19922;-49
2023/06/16 06:33:15;;;;;;;;;;;;;;;;;;5090815;28;19995;-51
2023/06/16 06:35:40;;;;;;;;;;;;;;;;;;5088739;28;20039;-50
2023/06/16 06:38:07;;;;;;;;;;;;;;;;;;5088222;28;19917;-51
2023/06/16 06:40:35;;;;;;;;;;;;;;;;;;5091655;28;20442;-52
2023/06/16 06:43:01;;;;;;;;;;;;;;;;;;5091063;28;19926;-48
2023/06/16 06:45:27;;;;;;;;;;;;;;;;;;5091336;28;19908;-50
2023/06/16 06:47:53;;;;;;;;;;;;;;;;;;5089292;28;20011;-50
2023/06/16 06:50:18;;;;;;;;;;;;;;;;;;5090273;28;19915;-50
2023/06/16 06:52:44;;;;;;;;;;;;;;;;;;5091298;28;19985;-51
2023/06/16 06:55:10;;;;;;;;;;;;;;;;;;5091446;28;19995;-49
2023/06/16 06:57:38;;;;;;;;;;;;;;;;;;5090424;28;19919;-49
2023/06/16 07:00:04;;;;;;;;;;;;;;;;;;5090169;28;19993;-48
2023/06/16 07:02:30;;;;;;;;;;;;;;;;;;5084730;28;19917;-49
2023/06/16 07:04:56;;;;;;;;;;;;;;;;;;5089240;28;19931;-49
2023/06/16 07:07:22;;;;;;;;;;;;;;;;;;5087917;28;19961;-49
2023/06/16 07:09:49;;;;;;;;;;;;;;;;;;5077294;28;19999;-49
2023/06/16 07:12:16;;;;;;;;;;;;;;;;;;5088539;28;19920;-51
2023/06/16 07:14:42;;;;;;;;;;;;;;;;;;5088137;28;19915;-50
2023/06/16 07:17:08;;;;;;;;;;;;;;;;;;5086999;28;20404;-48
2023/06/16 07:19:33;;;;;;;;;;;;;;;;;;5086096;28;19953;-48
2023/06/16 07:22:00;;;;;;;;;;;;;;;;;;5086625;28;19958;-51
2023/06/16 07:24:26;;;;;;;;;;;;;;;;;;5087314;28;20277;-49
2023/06/16 07:26:53;;;;;;;;;;;;;;;;;;5086500;28;20049;-52
2023/06/16 07:29:20;;;;;;;;;;;;;;;;;;5086137;28;19916;-50
2023/06/16 07:31:47;;;;;;;;;;;;;;;;;;5086610;28;19908;-49
2023/06/16 07:34:13;;;;;;;;;;;;;;;;;;5086053;28;19915;-52
2023/06/16 07:36:39;;;;;;;;;;;;;;;;;;5086412;28;19912;-49
2023/06/16 07:39:05;;;;;;;;;;;;;;;;;;5086227;28;19962;-49
2023/06/16 07:41:32;;;;;;;;;;;;;;;;;;5086330;28;19912;-48
2023/06/16 07:43:58;;;;;;;;;;;;;;;;;;5086394;28;19908;-49
2023/06/16 07:46:23;;;;;;;;;;;;;;;;;;5085319;28;20085;-47
2023/06/16 07:48:49;;;;;;;;;;;;;;;;;;5085218;28;19969;-49
2023/06/16 07:51:16;;;;;;;;;;;;;;;;;;5086288;28;19951;-48
2023/06/16 07:53:42;;;;;;;;;;;;;;;;;;5086255;28;20315;-48
2023/06/16 07:56:08;;;;;;;;;;;;;;;;;;5086131;28;19928;-49
2023/06/16 07:58:35;;;;;;;;;;;;;;;;;;5085751;28;20276;-47
2023/06/16 08:01:01;;;;;;;;;;;;;;;;;;5084389;28;19916;-47
2023/06/16 08:03:27;;;;;;;;;;;;;;;;;;5086606;28;19908;-48
2023/06/16 08:05:54;;;;;;;;;;;;;;;;;;5086379;28;19915;-49
2023/06/16 08:08:22;;;;;;;;;;;;;;;;;;5085857;28;20281;-48
2023/06/16 08:10:48;;;;;;;;;;;;;;;;;;5085898;28;20435;-47
2023/06/16 08:13:13;;;;;;;;;;;;;;;;;;5085443;28;19908;-48
2023/06/16 08:15:39;;;;;;;;;;;;;;;;;;5085909;28;19912;-47
2023/06/16 08:18:06;;;;;;;;;;;;;;;;;;5085970;28;19912;-48
2023/06/16 08:20:35;;;;;;;;;;;;;;;;;;5085128;28;20077;-49
2023/06/16 08:23:01;;;;;;;;;;;;;;;;;;5085897;28;20002;-49
2023/06/16 08:25:27;;;;;;;;;;;;;;;;;;5086259;28;19990;-47
2023/06/16 08:27:53;;;;;;;;;;;;;;;;;;5085282;28;19916;-49
2023/06/16 08:30:19;;;;;;;;;;;;;;;;;;5085768;28;19981;-48
2023/06/16 08:32:45;;;;;;;;;;;;;;;;;;5085700;28;19950;-48
2023/06/16 08:35:11;;;;;;;;;;;;;;;;;;5085512;28;19956;-48
2023/06/16 08:37:37;;;;;;;;;;;;;;;;;;5085701;28;19970;-51
2023/06/16 08:40:10;;;;;;;;;;;;;;;;;;5085502;28;19908;-48
2023/06/16 08:42:36;;;;;;;;;;;;;;;;;;5085519;28;19915;-48
2023/06/16 08:45:02;;;;;;;;;;;;;;;;;;5085536;28;19908;-48
2023/06/16 08:47:29;;;;;;;;;;;;;;;;;;5085704;28;19954;-50
2023/06/16 08:49:56;;;;;;;;;;;;;;;;;;5085863;28;20003;-51
2023/06/16 08:52:23;;;;;;;;;;;;;;;;;;5085446;28;20403;-52
2023/06/16 08:54:49;;;;;;;;;;;;;;;;;;5085380;28;19922;-52
2023/06/16 08:57:15;;;;;;;;;;;;;;;;;;5085360;28;20002;-51
2023/06/16 08:59:41;;;;;;;;;;;;;;;;;;5085210;28;19912;-48
2023/06/16 09:02:07;;;;;;;;;;;;;;;;;;5089406;28;19908;-51
2023/06/16 09:04:33;;;;;;;;;;;;;;;;;;5089412;28;20414;-49
2023/06/16 09:06:59;;;;;;;;;;;;;;;;;;5075522;28;19913;-50
2023/06/16 09:09:26;;;;;;;;;;;;;;;;;;5049222;28;20019;-49
2023/06/16 09:11:52;;;;;;;;;;;;;;;;;;5071871;28;19920;-48
2023/06/16 09:14:20;;;;;;;;;;;;;;;;;;5088956;28;20498;-50
2023/06/16 09:16:47;;;;;;;;;;;;;;;;;;5089431;28;19973;-51
2023/06/16 09:19:13;;;;;;;;;;;;;;;;;;5088921;28;20281;-49
2023/06/16 09:21:39;;;;;;;;;;;;;;;;;;5089689;28;20313;-51
2023/06/16 09:24:05;;;;;;;;;;;;;;;;;;5088956;28;19971;-52
2023/06/16 09:26:33;;;;;;;;;;;;;;;;;;5088707;28;21041;-52
2023/06/16 09:28:58;;;;;;;;;;;;;;;;;;5088696;28;19923;-49
2023/06/16 09:31:29;;;;;;;;;;;;;;;;;;5088699;28;19908;-48
2023/06/16 09:33:55;;;;;;;;;;;;;;;;;;5088769;28;19908;-48
2023/06/16 09:36:21;;;;;;;;;;;;;;;;;;5088587;28;19912;-49
2023/06/16 09:38:50;;;;;;;;;;;;;;;;;;5088526;28;19908;-48
2023/06/16 09:41:16;;;;;;;;;;;;;;;;;;5088537;28;19918;-49
2023/06/16 09:43:42;;;;;;;;;;;;;;;;;;5088501;28;19934;-49
2023/06/16 09:46:08;;;;;;;;;;;;;;;;;;5087482;28;19920;-52
2023/06/16 09:48:34;;;;;;;;;;;;;;;;;;5084459;28;19951;-51
2023/06/16 09:51:01;;;;;;;;;;;;;;;;;;5085113;28;20396;-49
2023/06/16 09:53:27;;;;;;;;;;;;;;;;;;5087597;28;20003;-52
2023/06/16 09:55:53;;;;;;;;;;;;;;;;;;5085696;28;20482;-50
2023/06/16 09:58:19;;;;;;;;;;;;;;;;;;5086270;28;19943;-53
2023/06/16 10:00:45;;;;;;;;;;;;;;;;;;5087164;28;19921;-48
2023/06/16 10:03:11;;;;;;;;;;;;;;;;;;5088227;28;20011;-49
2023/06/16 10:05:37;;;;;;;;;;;;;;;;;;5086821;28;19923;-49
2023/06/16 10:08:04;;;;;;;;;;;;;;;;;;5087165;28;20286;-48
2023/06/16 10:10:30;;;;;;;;;;;;;;;;;;5085768;28;19920;-49
2023/06/16 10:12:56;;;;;;;;;;;;;;;;;;5085367;28;19962;-52
2023/06/16 10:15:22;;;;;;;;;;;;;;;;;;5085880;28;19947;-49
2023/06/16 10:17:48;;;;;;;;;;;;;;;;;;5087718;28;19952;-49
2023/06/16 10:20:15;;;;;;;;;;;;;;;;;;5086611;28;19944;-50
2023/06/16 10:22:41;;;;;;;;;;;;;;;;;;5086523;28;19922;-50
2023/06/16 10:25:07;;;;;;;;;;;;;;;;;;5088834;28;19912;-52
2023/06/16 10:27:33;;;;;;;;;;;;;;;;;;5087298;28;19948;-49
2023/06/16 10:30:00;;;;;;;;;;;;;;;;;;5087239;28;20287;-51
2023/06/16 10:32:26;;;;;;;;;;;;;;;;;;5088398;28;20500;-51
2023/06/16 10:34:56;;;;;;;;;;;;;;;;;;5085945;28;20015;-48
2023/06/16 10:37:22;;;;;;;;;;;;;;;;;;5085026;28;19985;-50
2023/06/16 10:39:48;;;;;;;;;;;;;;;;;;5087521;28;20020;-52
2023/06/16 10:42:15;;;;;;;;;;;;;;;;;;5087081;28;20154;-49
2023/06/16 10:44:42;;;;;;;;;;;;;;;;;;5087562;28;20388;-52
2023/06/16 10:47:08;;;;;;;;;;;;;;;;;;5087795;28;20579;-50
2023/06/16 10:49:34;;;;;;;;;;;;;;;;;;5087648;28;19953;-49
2023/06/16 10:52:02;;;;;;;;;;;;;;;;;;5087064;28;19959;-51
2023/06/16 10:54:28;;;;;;;;;;;;;;;;;;5087197;28;19915;-49
2023/06/16 10:56:54;;;;;;;;;;;;;;;;;;5086824;28;19912;-52
2023/06/16 10:59:20;;;;;;;;;;;;;;;;;;5088573;28;19915;-52
2023/06/16 11:01:48;;;;;;;;;;;;;;;;;;5088641;28;19915;-51
2023/06/16 11:04:14;;;;;;;;;;;;;;;;;;5089157;28;21408;-50
2023/06/16 11:06:40;;;;;;;;;;;;;;;;;;5107638;28;20254;-48
2023/06/16 11:09:06;;;;;;;;;;;;;;;;;;5087983;28;20019;-48
2023/06/16 11:11:36;;;;;;;;;;;;;;;;;;5074711;28;19928;-50
2023/06/16 11:14:02;;;;;;;;;;;;;;;;;;5066495;28;19917;-52
2023/06/16 11:16:27;;;;;;;;;;;;;;;;;;5066235;28;20331;-52
2023/06/16 11:18:55;;;;;;;;;;;;;;;;;;5063860;28;19912;-50
2023/06/16 11:21:21;;;;;;;;;;;;;;;;;;5067805;28;20363;-48
2023/06/16 11:23:47;;;;;;;;;;;;;;;;;;5065567;28;20393;-49
2023/06/16 11:26:13;;;;;;;;;;;;;;;;;;5063346;28;19967;-49
2023/06/16 11:28:42;;;;;;;;;;;;;;;;;;5078221;28;19960;-51
2023/06/16 11:31:08;;;;;;;;;;;;;;;;;;5064441;28;19912;-52
2023/06/16 11:33:35;;;;;;;;;;;;;;;;;;5065148;28;20030;-50
2023/06/16 11:36:01;;;;;;;;;;;;;;;;;;5066002;28;20062;-52
2023/06/16 11:38:27;;;;;;;;;;;;;;;;;;5048319;28;19916;-49
2023/06/16 11:40:54;;;;;;;;;;;;;;;;;;5047943;28;19983;-53
2023/06/16 11:43:20;;;;;;;;;;;;;;;;;;5047008;28;19955;-50
2023/06/16 11:45:46;;;;;;;;;;;;;;;;;;5045980;28;20396;-50
2023/06/16 11:48:12;;;;;;;;;;;;;;;;;;5045748;28;19917;-53
2023/06/16 11:50:38;;;;;;;;;;;;;;;;;;5046264;28;19951;-51
2023/06/16 11:53:05;;;;;;;;;;;;;;;;;;5045720;28;19974;-48
2023/06/16 11:55:32;;;;;;;;;;;;;;;;;;5045682;28;19913;-49
2023/06/16 11:57:58;;;;;;;;;;;;;;;;;;5045827;28;20137;-48
2023/06/16 12:00:24;;;;;;;;;;;;;;;;;;5046584;28;20262;-51
2023/06/16 12:02:51;;;;;;;;;;;;;;;;;;5046477;28;19962;-51
2023/06/16 12:05:17;;;;;;;;;;;;;;;;;;5046020;28;19919;-52
2023/06/16 12:07:43;;;;;;;;;;;;;;;;;;5045560;28;19921;-51
2023/06/16 12:10:09;;;;;;;;;;;;;;;;;;5047902;28;19931;-47
2023/06/16 12:12:35;;;;;;;;;;;;;;;;;;5065657;28;19908;-48
2023/06/16 12:15:04;;;;;;;;;;;;;;;;;;5065489;28;19963;-50
2023/06/16 12:17:30;;;;;;;;;;;;;;;;;;5065660;28;20073;-48
2023/06/16 12:19:57;;;;;;;;;;;;;;;;;;5065491;28;20032;-47
2023/06/16 12:22:23;;;;;;;;;;;;;;;;;;5066158;28;19913;-49
2023/06/16 12:24:49;;;;;;;;;;;;;;;;;;5066301;28;19913;-48
2023/06/16 12:27:15;;;;;;;;;;;;;;;;;;5065378;28;20007;-48
2023/06/16 12:29:41;;;;;;;;;;;;;;;;;;5065350;28;19912;-47
2023/06/16 12:32:07;;;;;;;;;;;;;;;;;;5065543;28;19913;-48
2023/06/16 12:34:35;;;;;;;;;;;;;;;;;;5065556;28;19954;-49
2023/06/16 12:37:06;;;;;;;;;;;;;;;;;;5069563;28;19927;-48
2023/06/16 12:39:32;;;;;;;;;;;;;;;;;;5069464;28;20039;-50
2023/06/16 12:41:58;;;;;;;;;;;;;;;;;;5069520;28;19912;-49
2023/06/16 12:44:24;;;;;;;;;;;;;;;;;;5070235;28;19908;-49
2023/06/16 12:46:50;;;;;;;;;;;;;;;;;;5070351;28;19909;-48
2023/06/16 12:49:16;;;;;;;;;;;;;;;;;;5069360;28;19908;-49
2023/06/16 12:51:42;;;;;;;;;;;;;;;;;;5069417;28;19909;-49
2023/06/16 12:54:07;;;;;;;;;;;;;;;;;;5069107;28;20367;-48
2023/06/16 12:56:33;;;;;;;;;;;;;;;;;;5069230;28;19920;-48
2023/06/16 12:58:59;;;;;;;;;;;;;;;;;;5068904;28;20377;-53
2023/06/16 13:01:26;;;;;;;;;;;;;;;;;;5069248;28;19912;-51
2023/06/16 13:03:52;;;;;;;;;;;;;;;;;;5084218;28;20284;-52
2023/06/16 13:06:18;;;;;;;;;;;;;;;;;;5110103;28;20029;-52
2023/06/16 13:08:46;;;;;;;;;;;;;;;;;;5102104;28;20278;-48
2023/06/16 13:11:12;;;;;;;;;;;;;;;;;;5089115;28;20613;-52
2023/06/16 13:13:39;;;;;;;;;;;;;;;;;;5089186;28;20027;-52
2023/06/16 13:16:05;;;;;;;;;;;;;;;;;;5088996;28;19915;-52
2023/06/16 13:18:31;;;;;;;;;;;;;;;;;;5089102;28;19912;-50
2023/06/16 13:20:58;;;;;;;;;;;;;;;;;;5089117;28;19909;-52
2023/06/16 13:23:25;;;;;;;;;;;;;;;;;;5090007;28;20073;-48
2023/06/16 13:25:51;;;;;;;;;;;;;;;;;;5089256;28;19912;-50
2023/06/16 13:28:17;;;;;;;;;;;;;;;;;;5088783;28;19912;-52
2023/06/16 13:30:44;;;;;;;;;;;;;;;;;;5088838;28;19918;-49
2023/06/16 13:33:10;;;;;;;;;;;;;;;;;;5088862;28;19987;-53
2023/06/16 13:35:36;;;;;;;;;;;;;;;;;;5089179;28;20064;-49
2023/06/16 13:38:02;;;;;;;;;;;;;;;;;;5088667;28;19909;-49
2023/06/16 13:40:29;;;;;;;;;;;;;;;;;;5088575;28;20690;-49
2023/06/16 13:42:59;;;;;;;;;;;;;;;;;;5089384;28;19998;-52
2023/06/16 13:45:25;;;;;;;;;;;;;;;;;;5089371;28;20427;-49
2023/06/16 13:47:51;;;;;;;;;;;;;;;;;;5087887;28;20014;-50
2023/06/16 13:50:17;;;;;;;;;;;;;;;;;;5088404;28;19908;-51
2023/06/16 13:52:44;;;;;;;;;;;;;;;;;;5088257;28;19919;-49
2023/06/16 13:55:10;;;;;;;;;;;;;;;;;;5088246;28;19922;-50
2023/06/16 13:57:36;;;;;;;;;;;;;;;;;;5088390;28;20006;-49
2023/06/16 14:00:02;;;;;;;;;;;;;;;;;;5088537;28;20002;-48
2023/06/16 14:02:29;;;;;;;;;;;;;;;;;;5088337;28;20361;-48
2023/06/16 14:04:55;;;;;;;;;;;;;;;;;;5088718;28;20377;-49
2023/06/16 14:07:21;;;;;;;;;;;;;;;;;;5088437;28;19920;-51
2023/06/16 14:09:47;;;;;;;;;;;;;;;;;;5087892;28;19912;-50
2023/06/16 14:12:13;;;;;;;;;;;;;;;;;;5088147;28;19920;-49
2023/06/16 14:14:39;;;;;;;;;;;;;;;;;;5087970;28;19912;-49
2023/06/16 14:17:06;;;;;;;;;;;;;;;;;;5087981;28;19915;-47
2023/06/16 14:19:31;;;;;;;;;;;;;;;;;;5087799;28;19908;-47
2023/06/16 14:21:57;;;;;;;;;;;;;;;;;;5087920;28;19915;-51
2023/06/16 14:24:23;;;;;;;;;;;;;;;;;;5088290;28;20361;-46
2023/06/16 14:26:50;;;;;;;;;;;;;;;;;;5087899;28;19962;-48
2023/06/16 14:29:16;;;;;;;;;;;;;;;;;;5087642;28;20302;-49
2023/06/16 14:31:43;;;;;;;;;;;;;;;;;;5087589;28;19908;-49
2023/06/16 14:34:09;;;;;;;;;;;;;;;;;;5087733;28;19912;-49
2023/06/16 14:36:36;;;;;;;;;;;;;;;;;;5087564;28;20033;-48
2023/06/16 14:39:03;;;;;;;;;;;;;;;;;;5087218;28;20372;-49
2023/06/16 14:41:29;;;;;;;;;;;;;;;;;;5087860;28;19927;-47
2023/06/16 14:43:55;;;;;;;;;;;;;;;;;;5087832;28;19950;-52
2023/06/16 14:46:21;;;;;;;;;;;;;;;;;;5088134;28;19912;-47
2023/06/16 14:48:47;;;;;;;;;;;;;;;;;;5087069;28;19919;-51
2023/06/16 14:51:13;;;;;;;;;;;;;;;;;;5087256;28;19912;-48
2023/06/16 14:53:39;;;;;;;;;;;;;;;;;;5087194;28;19916;-50
2023/06/16 14:56:05;;;;;;;;;;;;;;;;;;5087325;28;19919;-51
2023/06/16 14:58:31;;;;;;;;;;;;;;;;;;5086885;28;19928;-48
2023/06/16 15:00:57;;;;;;;;;;;;;;;;;;5087029;28;19931;-50
2023/06/16 15:03:23;;;;;;;;;;;;;;;;;;5086119;28;19985;-51
2023/06/16 15:05:48;;;;;;;;;;;;;;;;;;5085985;28;20307;-48
2023/06/16 15:08:14;;;;;;;;;;;;;;;;;;5085376;28;19912;-46
2023/06/16 15:10:40;;;;;;;;;;;;;;;;;;5084900;28;19916;-47
2023/06/16 15:13:06;;;;;;;;;;;;;;;;;;5085959;28;19951;-50
2023/06/16 15:15:32;;;;;;;;;;;;;;;;;;5085620;28;19971;-49
2023/06/16 15:17:58;;;;;;;;;;;;;;;;;;5085586;28;19924;-51
2023/06/16 15:20:24;;;;;;;;;;;;;;;;;;5087374;28;20277;-48
2023/06/16 15:22:50;;;;;;;;;;;;;;;;;;5083942;28;20369;-49
2023/06/16 15:25:17;;;;;;;;;;;;;;;;;;5087023;28;20041;-51
2023/06/16 15:27:43;;;;;;;;;;;;;;;;;;5084402;28;19977;-47
2023/06/16 15:30:08;;;;;;;;;;;;;;;;;;5081554;28;20377;-48
2023/06/16 15:32:35;;;;;;;;;;;;;;;;;;5076320;28;19919;-51
2023/06/16 15:35:01;;;;;;;;;;;;;;;;;;5085362;28;20383;-48
2023/06/16 15:37:27;;;;;;;;;;;;;;;;;;5086343;28;19947;-49
2023/06/16 15:39:53;;;;;;;;;;;;;;;;;;5086199;28;19935;-50
2023/06/16 15:42:18;;;;;;;;;;;;;;;;;;5086124;28;20035;-48
2023/06/16 15:44:44;;;;;;;;;;;;;;;;;;5084759;28;19916;-51
2023/06/16 15:47:10;;;;;;;;;;;;;;;;;;5085886;28;19912;-50
2023/06/16 15:49:36;;;;;;;;;;;;;;;;;;5087607;28;19908;-50
2023/06/16 15:52:02;;;;;;;;;;;;;;;;;;5085796;28;19943;-51
2023/06/16 15:54:28;;;;;;;;;;;;;;;;;;5087831;28;19915;-47
2023/06/16 15:56:54;;;;;;;;;;;;;;;;;;5082134;28;19916;-50
2023/06/16 15:59:20;;;;;;;;;;;;;;;;;;5084901;28;19912;-48
2023/06/16 16:01:46;;;;;;;;;;;;;;;;;;5086380;28;20440;-49
2023/06/16 16:04:12;;;;;;;;;;;;;;;;;;5085070;28;19991;-49
2023/06/16 16:06:38;;;;;;;;;;;;;;;;;;5086464;28;19982;-50
2023/06/16 16:09:07;;;;;;;;;;;;;;;;;;5082066;28;19920;-48
2023/06/16 16:11:33;;;;;;;;;;;;;;;;;;5085915;28;19916;-50
2023/06/16 16:13:59;;;;;;;;;;;;;;;;;;5086248;28;20506;-46
2023/06/16 16:16:24;;;;;;;;;;;;;;;;;;5088635;28;19919;-47
2023/06/16 16:18:50;;;;;;;;;;;;;;;;;;5086691;28;19977;-50
2023/06/16 16:21:16;;;;;;;;;;;;;;;;;;5088034;28;20011;-48
2023/06/16 16:23:42;;;;;;;;;;;;;;;;;;5086793;28;19912;-46
2023/06/16 16:26:08;;;;;;;;;;;;;;;;;;5087232;28;19935;-47
2023/06/16 16:28:34;;;;;;;;;;;;;;;;;;5087575;28;19916;-47
2023/06/16 16:31:02;;;;;;;;;;;;;;;;;;5086021;28;19908;-50
2023/06/16 16:33:28;;;;;;;;;;;;;;;;;;5086532;28;19916;-47
2023/06/16 16:35:54;;;;;;;;;;;;;;;;;;5086697;28;19912;-47
2023/06/16 16:38:20;;;;;;;;;;;;;;;;;;5079457;28;20581;-47
2023/06/16 16:40:47;;;;;;;;;;;;;;;;;;5087976;28;19908;-46
2023/06/16 16:43:12;;;;;;;;;;;;;;;;;;5077872;28;19954;-50
2023/06/16 16:45:38;;;;;;;;;;;;;;;;;;5085522;28;19920;-47
2023/06/16 16:48:04;;;;;;;;;;;;;;;;;;5085875;28;19975;-48
2023/06/16 16:50:30;;;;;;;;;;;;;;;;;;5087109;28;19935;-48
2023/06/16 16:52:56;;;;;;;;;;;;;;;;;;5086285;28;20424;-46
2023/06/16 16:55:22;;;;;;;;;;;;;;;;;;5088494;28;20007;-47
2023/06/16 16:57:48;;;;;;;;;;;;;;;;;;5086052;28;19930;-47
2023/06/16 17:00:14;;;;;;;;;;;;;;;;;;5087551;28;20035;-49
2023/06/16 17:02:40;;;;;;;;;;;;;;;;;;5087785;28;19962;-47
2023/06/16 17:05:06;;;;;;;;;;;;;;;;;;5086665;28;19946;-48
2023/06/16 17:07:32;;;;;;;;;;;;;;;;;;5074884;28;19921;-48
2023/06/16 17:09:58;;;;;;;;;;;;;;;;;;5083885;28;19935;-47
2023/06/16 17:12:24;;;;;;;;;;;;;;;;;;5088101;28;19924;-46
2023/06/16 17:14:50;;;;;;;;;;;;;;;;;;5086826;28;19912;-49
2023/06/16 17:17:16;;;;;;;;;;;;;;;;;;5087676;28;19922;-51
2023/06/16 17:19:42;;;;;;;;;;;;;;;;;;5073829;28;19912;-50
2023/06/16 17:22:08;;;;;;;;;;;;;;;;;;5088437;28;19973;-48
2023/06/16 17:24:34;;;;;;;;;;;;;;;;;;5089572;28;19959;-47
2023/06/16 17:27:00;;;;;;;;;;;;;;;;;;5090302;28;19964;-49
2023/06/16 17:29:26;;;;;;;;;;;;;;;;;;5090752;28;19912;-45
2023/06/16 17:31:51;;;;;;;;;;;;;;;;;;5091035;28;19973;-46
2023/06/16 17:34:17;;;;;;;;;;;;;;;;;;5090173;28;20361;-46
2023/06/16 17:36:44;;;;;;;;;;;;;;;;;;5088662;28;19908;-47
2023/06/16 17:39:10;;;;;;;;;;;;;;;;;;5089633;28;19916;-47
2023/06/16 17:41:37;;;;;;;;;;;;;;;;;;5086996;28;20065;-46
2023/06/16 17:44:04;;;;;;;;;;;;;;;;;;5102868;28;19916;-47
2023/06/16 17:46:30;;;;;;;;;;;;;;;;;;5108694;28;20303;-47
2023/06/16 17:48:57;;;;;;;;;;;;;;;;;;5102200;28;19912;-47
2023/06/16 17:51:23;;;;;;;;;;;;;;;;;;5086753;28;20304;-50
2023/06/16 17:53:49;;;;;;;;;;;;;;;;;;5085304;28;19916;-46
2023/06/16 17:56:17;;;;;;;;;;;;;;;;;;5082355;28;19916;-46
2023/06/16 17:58:42;;;;;;;;;;;;;;;;;;5083250;28;19919;-46
2023/06/16 18:01:08;;;;;;;;;;;;;;;;;;5085612;28;19916;-46
2023/06/16 18:03:35;;;;;;;;;;;;;;;;;;5079841;28;20350;-46
2023/06/16 18:06:00;;;;;;;;;;;;;;;;;;5066534;28;19990;-49
2023/06/16 18:08:26;;;;;;;;;;;;;;;;;;5071710;28;20375;-48
2023/06/16 18:10:52;;;;;;;;;;;;;;;;;;5086961;28;20011;-46
2023/06/16 18:13:18;;;;;;;;;;;;;;;;;;5086929;28;20339;-48
2023/06/16 18:15:44;;;;;;;;;;;;;;;;;;5081627;28;20678;-47
2023/06/16 18:18:10;;;;;;;;;;;;;;;;;;5074597;28;19958;-46
2023/06/16 18:20:36;;;;;;;;;;;;;;;;;;5084407;28;19912;-47
2023/06/16 18:23:02;;;;;;;;;;;;;;;;;;5084833;28;19916;-49
2023/06/16 18:25:28;;;;;;;;;;;;;;;;;;5075249;28;19957;-47
2023/06/16 18:27:56;;;;;;;;;;;;;;;;;;5082708;28;19959;-47
2023/06/16 18:30:21;;;;;;;;;;;;;;;;;;5081803;28;20763;-47
2023/06/16 18:32:47;;;;;;;;;;;;;;;;;;5085781;28;19927;-47
2023/06/16 18:35:13;;;;;;;;;;;;;;;;;;5084802;28;19952;-46
2023/06/16 18:37:41;;;;;;;;;;;;;;;;;;5076117;28;19916;-48
2023/06/16 18:40:07;;;;;;;;;;;;;;;;;;5080892;28;19915;-46
2023/06/16 18:42:33;;;;;;;;;;;;;;;;;;5085854;28;20004;-50
2023/06/16 18:45:03;;;;;;;;;;;;;;;;;;5085644;28;19962;-50
2023/06/16 18:47:29;;;;;;;;;;;;;;;;;;5079448;28;19983;-47
2023/06/16 18:49:56;;;;;;;;;;;;;;;;;;5082058;28;19958;-50
2023/06/16 18:52:22;;;;;;;;;;;;;;;;;;5082613;28;20216;-47
2023/06/16 18:54:48;;;;;;;;;;;;;;;;;;5081185;28;19912;-47
2023/06/16 18:57:14;;;;;;;;;;;;;;;;;;5083671;28;19970;-50
2023/06/16 18:59:40;;;;;;;;;;;;;;;;;;5082081;28;20143;-50
2023/06/16 19:02:06;;;;;;;;;;;;;;;;;;5084132;28;19995;-49
2023/06/16 19:04:32;;;;;;;;;;;;;;;;;;5083885;28;20014;-49
2023/06/16 19:06:58;;;;;;;;;;;;;;;;;;5082954;28;20019;-48
2023/06/16 19:09:24;;;;;;;;;;;;;;;;;;5083803;28;19932;-49
2023/06/16 19:11:50;;;;;;;;;;;;;;;;;;5084094;28;19916;-48
2023/06/16 19:14:16;;;;;;;;;;;;;;;;;;5083601;28;20701;-51
2023/06/16 19:16:42;;;;;;;;;;;;;;;;;;5084859;28;19912;-49
2023/06/16 19:19:08;;;;;;;;;;;;;;;;;;5086279;28;19981;-48
2023/06/16 19:21:34;;;;;;;;;;;;;;;;;;5084853;28;19912;-50
2023/06/16 19:24:00;;;;;;;;;;;;;;;;;;5081144;28;19965;-50
2023/06/16 19:26:26;;;;;;;;;;;;;;;;;;5084220;28;19920;-47
2023/06/16 19:28:52;;;;;;;;;;;;;;;;;;5085244;28;19920;-51
2023/06/16 19:31:18;;;;;;;;;;;;;;;;;;5069489;28;19927;-49
2023/06/16 19:33:44;;;;;;;;;;;;;;;;;;5085158;28;19912;-48
2023/06/16 19:36:10;;;;;;;;;;;;;;;;;;5079911;28;19982;-50
2023/06/16 19:38:37;;;;;;;;;;;;;;;;;;5085106;28;19943;-49
2023/06/16 19:41:03;;;;;;;;;;;;;;;;;;5083586;28;19920;-48
2023/06/16 19:43:29;;;;;;;;;;;;;;;;;;5070078;28;19923;-52
2023/06/16 19:45:55;;;;;;;;;;;;;;;;;;5082892;28;19918;-51
2023/06/16 19:48:21;;;;;;;;;;;;;;;;;;5084099;28;19941;-49
2023/06/16 19:50:47;;;;;;;;;;;;;;;;;;5081861;28;19947;-52
2023/06/16 19:53:12;;;;;;;;;;;;;;;;;;5084374;28;19916;-49
2023/06/16 19:55:38;;;;;;;;;;;;;;;;;;5081805;28;19912;-47
2023/06/16 19:58:04;;;;;;;;;;;;;;;;;;5079507;28;19935;-49
2023/06/16 20:00:30;;;;;;;;;;;;;;;;;;5081921;28;20002;-47
2023/06/16 20:02:56;;;;;;;;;;;;;;;;;;5084358;28;19916;-47
2023/06/16 20:05:22;;;;;;;;;;;;;;;;;;5076153;28;20009;-50
2023/06/16 20:07:50;;;;;;;;;;;;;;;;;;5081980;28;20373;-49
2023/06/16 20:10:15;;;;;;;;;;;;;;;;;;5081646;28;20018;-49
2023/06/16 20:12:41;;;;;;;;;;;;;;;;;;5080286;28;20007;-48
2023/06/16 20:15:07;;;;;;;;;;;;;;;;;;5084062;28;19912;-50
2023/06/16 20:17:35;;;;;;;;;;;;;;;;;;5084242;28;19959;-46
2023/06/16 20:20:08;;;;;;;;;;;;;;;;;;5082404;28;20454;-47
2023/06/16 20:22:34;;;;;;;;;;;;;;;;;;5083890;28;19920;-49
2023/06/16 20:25:00;;;;;;;;;;;;;;;;;;5083472;28;20059;-48
2023/06/16 20:27:26;;;;;;;;;;;;;;;;;;5081943;28;19955;-50
2023/06/16 20:29:52;;;;;;;;;;;;;;;;;;5084063;28;19990;-46
2023/06/16 20:32:18;;;;;;;;;;;;;;;;;;5084891;28;20535;-48
2023/06/16 20:34:44;;;;;;;;;;;;;;;;;;5078849;28;19908;-46
2023/06/16 20:37:10;;;;;;;;;;;;;;;;;;5082209;28;20376;-48
2023/06/16 20:39:37;;;;;;;;;;;;;;;;;;5082806;28;20278;-49
2023/06/16 20:42:04;;;;;;;;;;;;;;;;;;5085349;28;19916;-50
2023/06/16 20:44:31;;;;;;;;;;;;;;;;;;5083613;28;19995;-48
2023/06/16 20:46:57;;;;;;;;;;;;;;;;;;5083897;28;20341;-47
2023/06/16 20:49:23;;;;;;;;;;;;;;;;;;5076870;28;20436;-49
2023/06/16 20:51:51;;;;;;;;;;;;;;;;;;5082756;28;19912;-50
2023/06/16 20:54:17;;;;;;;;;;;;;;;;;;5074724;28;19912;-48
2023/06/16 20:56:43;;;;;;;;;;;;;;;;;;5085636;28;19966;-50
2023/06/16 20:59:09;;;;;;;;;;;;;;;;;;5088692;28;19919;-49
2023/06/16 21:01:42;;;;;;;;;;;;;;;;;;5087378;28;19991;-48
2023/06/16 21:04:11;;;;;;;;;;;;;;;;;;5088387;28;19977;-50
2023/06/16 21:06:37;;;;;;;;;;;;;;;;;;5087823;28;20334;-47
2023/06/16 21:09:04;;;;;;;;;;;;;;;;;;5084205;28;19920;-46
2023/06/16 21:11:30;;;;;;;;;;;;;;;;;;5088374;28;19998;-45
2023/06/16 21:13:56;;;;;;;;;;;;;;;;;;5089812;28;19920;-48
2023/06/16 21:16:22;;;;;;;;;;;;;;;;;;5086446;28;19915;-46
2023/06/16 21:18:48;;;;;;;;;;;;;;;;;;5085736;28;19966;-49
2023/06/16 21:21:14;;;;;;;;;;;;;;;;;;5088796;28;19947;-45
2023/06/16 21:23:40;;;;;;;;;;;;;;;;;;5088819;28;19958;-50
2023/06/16 21:26:06;;;;;;;;;;;;;;;;;;5084031;28;20031;-46
2023/06/16 21:28:32;;;;;;;;;;;;;;;;;;5085750;28;19920;-49
2023/06/16 21:30:58;;;;;;;;;;;;;;;;;;5084911;28;19912;-46
2023/06/16 21:33:25;;;;;;;;;;;;;;;;;;5089233;28;19957;-46
2023/06/16 21:35:51;;;;;;;;;;;;;;;;;;5086654;28;19986;-47
2023/06/16 21:38:20;;;;;;;;;;;;;;;;;;5086690;28;19958;-47
2023/06/16 21:40:46;;;;;;;;;;;;;;;;;;5087011;28;19915;-46
2023/06/16 21:43:12;;;;;;;;;;;;;;;;;;5085933;28;19916;-47
2023/06/16 21:45:38;;;;;;;;;;;;;;;;;;5089043;28;19912;-48